Time;durP1;ratioP1;P1;durP2;ratioP2;P2;SDS_P1;SDS_P2;PMS_P1;PMS_P2;Temp;Humidity;BMP_temperature;BMP_pressure;BME280_temperature;BME280_humidity;BME280_pressure;Samples;Min_cycle;Max_cycle;Signal;HPM_P1;HPM_P2
2023/12/21 00:14:44;;;;;;;23.77;9.17;;;;;;;;;;31595998;28;20056;-73
2023/12/21 00:29:46;;;;;;;90.03;11.37;;;;;;;;;;31496842;28;20131;-74
2023/12/21 00:44:48;;;;;;;58.37;7.17;;;;;;;;;;31549344;28;20377;-75
2023/12/21 00:59:49;;;;;;;77.70;9.43;;;;;;;;;;31586995;28;20060;-74
2023/12/21 01:14:51;;;;;;;82.53;8.57;;;;;;;;;;31603899;28;20105;-74
2023/12/21 01:29:56;;;;;;;114.33;10.00;;;;;;;;;;31576067;28;20050;-74
2023/12/21 01:44:58;;;;;;;54.53;8.37;;;;;;;;;;31569231;28;20076;-74
2023/12/21 01:59:59;;;;;;;73.67;9.10;;;;;;;;;;31594972;28;20076;-73
2023/12/21 02:15:01;;;;;;;97.97;9.07;;;;;;;;;;31585982;28;20043;-73
2023/12/21 02:30:03;;;;;;;57.17;8.07;;;;;;;;;;31594082;28;20048;-73
2023/12/21 02:45:05;;;;;;;39.50;6.97;;;;;;;;;;31570873;28;20150;-73
2023/12/21 03:00:08;;;;;;;37.77;6.40;;;;;;;;;;31598745;28;20052;-74
2023/12/21 03:15:10;;;;;;;9.43;5.07;;;;;;;;;;31616852;28;20044;-73
2023/12/21 03:30:12;;;;;;;22.70;6.10;;;;;;;;;;31617884;28;20043;-74
2023/12/21 03:45:14;;;;;;;23.00;5.47;;;;;;;;;;31605306;28;20491;-74
2023/12/21 04:00:19;;;;;;;22.87;5.83;;;;;;;;;;31603002;28;20079;-74
2023/12/21 04:15:21;;;;;;;8.43;4.23;;;;;;;;;;31591918;28;20514;-75
2023/12/21 04:30:23;;;;;;;9.70;5.17;;;;;;;;;;31606002;28;20130;-80
2023/12/21 04:45:25;;;;;;;9.47;5.80;;;;;;;;;;31617438;28;20048;-79
2023/12/21 05:00:29;;;;;;;9.33;5.57;;;;;;;;;;31605924;28;20055;-78
2023/12/21 05:15:31;;;;;;;11.97;5.67;;;;;;;;;;31605601;28;20469;-77
2023/12/21 05:30:33;;;;;;;11.27;5.60;;;;;;;;;;31607173;28;20041;-77
2023/12/21 05:45:34;;;;;;;13.10;6.27;;;;;;;;;;31602160;28;20056;-76
2023/12/21 06:00:37;;;;;;;11.30;5.10;;;;;;;;;;31593069;28;20056;-72
2023/12/21 06:15:39;;;;;;;10.33;4.90;;;;;;;;;;31593866;28;20044;-73
2023/12/21 06:30:41;;;;;;;15.33;4.97;;;;;;;;;;31593815;28;20050;-73
2023/12/21 06:45:43;;;;;;;11.10;6.13;;;;;;;;;;31590601;28;20048;-78
2023/12/21 07:00:45;;;;;;;12.20;5.77;;;;;;;;;;31597692;28;20546;-77
2023/12/21 07:15:47;;;;;;;14.77;5.67;;;;;;;;;;31606211;28;20056;-77
2023/12/21 07:30:48;;;;;;;12.83;5.97;;;;;;;;;;31602733;28;20488;-76
2023/12/21 07:45:52;;;;;;;15.27;6.63;;;;;;;;;;31558972;28;20128;-75
2023/12/21 08:00:55;;;;;;;11.50;5.80;;;;;;;;;;31594567;28;20052;-75
2023/12/21 08:15:57;;;;;;;15.97;6.17;;;;;;;;;;31620910;28;20109;-76
2023/12/21 08:31:00;;;;;;;38.07;18.10;;;;;;;;;;31590677;28;20078;-77
2023/12/21 08:46:03;;;;;;;12.53;5.97;;;;;;;;;;31578595;28;20579;-75
2023/12/21 09:01:05;;;;;;;13.63;6.27;;;;;;;;;;31576181;28;20082;-74
2023/12/21 09:16:07;;;;;;;36.83;13.87;;;;;;;;;;31591228;28;20063;-79
2023/12/21 09:31:09;;;;;;;20.90;8.63;;;;;;;;;;31564298;28;20077;-78
2023/12/21 09:46:11;;;;;;;20.43;10.97;;;;;;;;;;31599035;28;20139;-78
2023/12/21 10:01:13;;;;;;;41.70;20.43;;;;;;;;;;31580107;28;20047;-79
2023/12/21 10:16:16;;;;;;;28.13;12.90;;;;;;;;;;31599619;28;20423;-77
2023/12/21 10:31:20;;;;;;;21.53;10.67;;;;;;;;;;31596352;28;20064;-77
2023/12/21 10:46:22;;;;;;;34.33;13.33;;;;;;;;;;31572925;28;20143;-79
2023/12/21 11:01:25;;;;;;;34.13;11.17;;;;;;;;;;31592758;28;20055;-77
2023/12/21 11:16:36;;;;;;;35.53;13.33;;;;;;;;;;31589437;28;20523;-76
2023/12/21 11:31:38;;;;;;;38.67;14.90;;;;;;;;;;31631517;28;20049;-80
2023/12/21 11:46:41;;;;;;;38.03;13.63;;;;;;;;;;31621651;28;20470;-79
2023/12/21 12:01:46;;;;;;;37.17;12.20;;;;;;;;;;31617814;28;20072;-75
2023/12/21 12:16:49;;;;;;;46.40;11.77;;;;;;;;;;31608104;28;20405;-78
2023/12/21 12:31:51;;;;;;;35.70;10.73;;;;;;;;;;31620280;28;20297;-80
2023/12/21 12:46:56;;;;;;;59.20;11.87;;;;;;;;;;31599893;28;20044;-81
2023/12/21 13:01:58;;;;;;;51.63;12.10;;;;;;;;;;31601544;28;20056;-80
2023/12/21 13:17:00;;;;;;;37.77;11.47;;;;;;;;;;31609975;28;20048;-81
2023/12/21 13:32:02;;;;;;;32.23;10.53;;;;;;;;;;31604436;28;20131;-79
2023/12/21 13:47:04;;;;;;;43.07;13.53;;;;;;;;;;31609316;28;20495;-81
2023/12/21 14:02:07;;;;;;;50.63;14.60;;;;;;;;;;31609242;28;20055;-78
2023/12/21 14:17:09;;;;;;;40.00;12.83;;;;;;;;;;31600209;28;20483;-77
2023/12/21 14:32:12;;;;;;;38.17;13.43;;;;;;;;;;31592080;28;20403;-80
2023/12/21 14:47:15;;;;;;;48.93;12.93;;;;;;;;;;31532192;28;20081;-79
2023/12/21 15:02:17;;;;;;;55.47;16.27;;;;;;;;;;31580324;28;20122;-79
2023/12/21 15:17:19;;;;;;;55.57;13.90;;;;;;;;;;31601569;28;20044;-77
2023/12/21 15:32:21;;;;;;;48.40;13.80;;;;;;;;;;31623619;28;20052;-79
2023/12/21 15:47:26;;;;;;;48.57;13.10;;;;;;;;;;31592915;28;20099;-77
2023/12/21 16:02:28;;;;;;;49.23;13.43;;;;;;;;;;31596894;28;20044;-82
2023/12/21 16:17:30;;;;;;;35.03;12.03;;;;;;;;;;31634192;28;20041;-77
2023/12/21 16:32:32;;;;;;;31.10;12.10;;;;;;;;;;31628904;28;20124;-76
2023/12/21 16:47:34;;;;;;;32.10;12.27;;;;;;;;;;31619558;28;20392;-84
2023/12/21 17:02:36;;;;;;;31.87;11.33;;;;;;;;;;31613166;28;20135;-89
2023/12/21 17:17:38;;;;;;;41.00;12.40;;;;;;;;;;31629163;28;20052;-86
2023/12/21 17:32:40;;;;;;;41.33;14.80;;;;;;;;;;31617725;28;20044;-80
2023/12/21 17:47:42;;;;;;;37.07;11.47;;;;;;;;;;31611640;28;20048;-81
2023/12/21 18:02:44;;;;;;;92.13;33.33;;;;;;;;;;31585920;28;20134;-79
2023/12/21 18:17:46;;;;;;;35.10;12.53;;;;;;;;;;31605421;28;20048;-84
2023/12/21 18:32:50;;;;;;;79.47;13.60;;;;;;;;;;31560734;28;20059;-75
2023/12/21 18:47:53;;;;;;;83.63;29.77;;;;;;;;;;31505983;28;20076;-75
2023/12/21 19:02:55;;;;;;;56.23;17.70;;;;;;;;;;31573595;28;20056;-82
2023/12/21 19:17:57;;;;;;;76.47;10.93;;;;;;;;;;31592680;28;20056;-81
2023/12/21 19:33:05;;;;;;;57.27;15.77;;;;;;;;;;31598431;28;20048;-81
2023/12/21 19:48:07;;;;;;;46.67;15.90;;;;;;;;;;31606985;28;20738;-80
2023/12/21 20:03:09;;;;;;;52.13;11.03;;;;;;;;;;31611986;28;20551;-81
2023/12/21 20:18:14;;;;;;;49.07;12.70;;;;;;;;;;31607806;28;20423;-78
2023/12/21 20:33:16;;;;;;;58.20;12.57;;;;;;;;;;31563319;28;20066;-79
2023/12/21 20:48:18;;;;;;;32.47;12.67;;;;;;;;;;31552950;28;20225;-81
2023/12/21 21:03:20;;;;;;;41.00;14.40;;;;;;;;;;31598299;28;20058;-80
2023/12/21 21:18:22;;;;;;;41.23;14.73;;;;;;;;;;31585776;28;20048;-82
2023/12/21 21:33:24;;;;;;;49.83;16.53;;;;;;;;;;31574756;28;20109;-82
2023/12/21 21:48:27;;;;;;;45.03;16.43;;;;;;;;;;31600233;28;20067;-81
2023/12/21 22:03:29;;;;;;;43.27;16.43;;;;;;;;;;31618104;28;20135;-81
2023/12/21 22:18:31;;;;;;;50.57;17.83;;;;;;;;;;31610715;28;20506;-79
2023/12/21 22:33:33;;;;;;;47.80;13.30;;;;;;;;;;31601065;28;20055;-81
2023/12/21 22:48:35;;;;;;;64.53;12.70;;;;;;;;;;31597478;28;20547;-80
2023/12/21 23:03:38;;;;;;;163.03;19.87;;;;;;;;;;31596852;28;20491;-79
2023/12/21 23:18:39;;;;;;;141.80;17.20;;;;;;;;;;31590928;28;20072;-79
2023/12/21 23:33:41;;;;;;;85.87;15.87;;;;;;;;;;31627855;28;20464;-79
2023/12/21 23:48:44;;;;;;;71.70;13.30;;;;;;;;;;31592066;28;20062;-74
